Time;durP1;ratioP1;P1;durP2;ratioP2;P2;SDS_P1;SDS_P2;PMS_P1;PMS_P2;Temp;Humidity;BMP_temperature;BMP_pressure;BME280_temperature;BME280_humidity;BME280_pressure;Samples;Min_cycle;Max_cycle;Signal;HPM_P1;HPM_P2
2023/10/29 00:01:04;;;;;;;3.15;1.17;;;;;;;;;;5033120;28;20120;-77
2023/10/29 00:03:30;;;;;;;2.75;1.10;;;;;;;;;;5051080;28;20032;-78
2023/10/29 00:05:55;;;;;;;3.38;1.40;;;;;;;;;;5050790;28;20041;-78
2023/10/29 00:08:20;;;;;;;3.55;1.55;;;;;;;;;;5049723;28;20036;-78
2023/10/29 00:10:46;;;;;;;2.28;0.75;;;;;;;;;;5051062;28;20040;-78
2023/10/29 00:13:11;;;;;;;3.97;1.20;;;;;;;;;;5050367;28;20108;-79
2023/10/29 00:15:36;;;;;;;5.38;1.40;;;;;;;;;;5050892;28;20216;-78
2023/10/29 00:18:02;;;;;;;4.00;1.45;;;;;;;;;;5032957;28;20075;-78
2023/10/29 00:20:27;;;;;;;3.72;1.60;;;;;;;;;;5051072;28;20074;-78
2023/10/29 00:22:52;;;;;;;7.00;1.08;;;;;;;;;;5033265;28;20494;-78
2023/10/29 00:25:18;;;;;;;2.58;1.10;;;;;;;;;;5031622;28;20512;-78
2023/10/29 00:27:43;;;;;;;5.05;1.20;;;;;;;;;;5033249;28;20036;-77
2023/10/29 00:30:08;;;;;;;4.55;1.33;;;;;;;;;;5048468;28;20033;-78
2023/10/29 00:32:34;;;;;;;4.63;1.30;;;;;;;;;;5051098;28;20400;-78
2023/10/29 00:34:59;;;;;;;3.72;1.52;;;;;;;;;;5050817;28;20086;-78
2023/10/29 00:37:25;;;;;;;4.78;1.23;;;;;;;;;;5033154;28;20144;-78
2023/10/29 00:39:50;;;;;;;3.20;1.23;;;;;;;;;;5050861;28;20107;-79
2023/10/29 00:42:15;;;;;;;4.07;1.23;;;;;;;;;;5050762;28;20028;-79
2023/10/29 00:44:40;;;;;;;4.50;1.40;;;;;;;;;;5047703;28;20028;-78
2023/10/29 00:47:06;;;;;;;3.72;0.98;;;;;;;;;;5042159;22;20046;-80
2023/10/29 00:49:31;;;;;;;4.28;0.98;;;;;;;;;;5022765;28;20039;-80
2023/10/29 00:51:56;;;;;;;4.75;1.30;;;;;;;;;;5017931;28;20026;-81
2023/10/29 00:54:22;;;;;;;5.47;1.20;;;;;;;;;;5005145;28;20079;-80
2023/10/29 00:56:48;;;;;;;4.38;1.40;;;;;;;;;;5020592;28;20021;-81
2023/10/29 00:59:14;;;;;;;4.35;1.20;;;;;;;;;;5015963;28;20073;-81
2023/10/29 01:01:40;;;;;;;4.03;1.60;;;;;;;;;;5023114;28;20432;-81
2023/10/29 01:04:05;;;;;;;3.42;1.05;;;;;;;;;;5002091;28;20034;-81
2023/10/29 01:06:31;;;;;;;2.97;1.02;;;;;;;;;;5023011;28;20097;-81
2023/10/29 01:08:56;;;;;;;3.40;1.00;;;;;;;;;;5020456;28;20036;-81
2023/10/29 01:11:22;;;;;;;5.55;1.33;;;;;;;;;;5023746;28;20034;-80
2023/10/29 01:13:47;;;;;;;3.10;1.00;;;;;;;;;;5006896;28;20026;-80
2023/10/29 01:16:12;;;;;;;3.88;1.00;;;;;;;;;;5008639;28;20064;-80
2023/10/29 01:18:37;;;;;;;3.60;1.10;;;;;;;;;;5025884;28;20030;-82
2023/10/29 01:21:03;;;;;;;4.65;1.20;;;;;;;;;;5011643;28;20180;-81
2023/10/29 01:23:30;;;;;;;3.33;1.30;;;;;;;;;;5026073;28;20040;-81
2023/10/29 01:25:58;;;;;;;4.88;1.30;;;;;;;;;;5018718;28;20026;-80
2023/10/29 01:28:24;;;;;;;3.20;1.27;;;;;;;;;;5022343;28;20053;-80
2023/10/29 01:30:50;;;;;;;2.78;1.00;;;;;;;;;;5025075;28;20494;-79
2023/10/29 01:33:15;;;;;;;3.88;0.93;;;;;;;;;;5024082;28;20033;-80
2023/10/29 01:35:40;;;;;;;4.35;1.77;;;;;;;;;;5012362;28;20030;-80
2023/10/29 01:38:05;;;;;;;3.80;1.20;;;;;;;;;;5023982;28;20036;-80
2023/10/29 01:40:31;;;;;;;6.68;1.23;;;;;;;;;;5009399;28;20084;-80
2023/10/29 01:42:57;;;;;;;2.33;1.10;;;;;;;;;;5021028;28;20024;-80
2023/10/29 01:45:22;;;;;;;3.50;1.42;;;;;;;;;;5022551;28;20482;-80
2023/10/29 01:47:48;;;;;;;4.43;1.35;;;;;;;;;;5021001;28;20030;-81
2023/10/29 01:50:15;;;;;;;4.18;1.30;;;;;;;;;;5019309;28;20029;-80
2023/10/29 01:52:40;;;;;;;2.30;1.02;;;;;;;;;;5020367;28;20029;-82
2023/10/29 01:55:06;;;;;;;4.00;1.00;;;;;;;;;;5017466;28;20091;-81
2023/10/29 01:57:37;;;;;;;5.88;1.20;;;;;;;;;;5017425;28;20547;-81
2023/10/29 02:00:05;;;;;;;3.53;1.27;;;;;;;;;;5017696;28;20026;-81
2023/10/29 02:02:37;;;;;;;3.38;1.10;;;;;;;;;;5001649;28;20073;-80
2023/10/29 02:05:03;;;;;;;3.72;0.80;;;;;;;;;;5015857;28;20112;-82
2023/10/29 02:07:29;;;;;;;2.38;0.88;;;;;;;;;;5010161;28;20034;-81
2023/10/29 02:09:54;;;;;;;4.25;1.23;;;;;;;;;;5005656;28;20030;-81
2023/10/29 02:12:20;;;;;;;6.50;1.25;;;;;;;;;;5007022;28;20018;-82
2023/10/29 02:14:45;;;;;;;3.08;0.90;;;;;;;;;;5010097;28;20508;-82
2023/10/29 02:17:11;;;;;;;3.13;1.00;;;;;;;;;;5022029;28;20108;-82
2023/10/29 02:19:36;;;;;;;3.60;1.00;;;;;;;;;;5023537;28;20501;-82
2023/10/29 02:22:01;;;;;;;5.03;1.50;;;;;;;;;;5020533;28;20025;-82
2023/10/29 02:24:26;;;;;;;2.70;1.08;;;;;;;;;;5006378;28;20029;-81
2023/10/29 02:26:53;;;;;;;2.58;0.90;;;;;;;;;;5001989;28;20120;-82
2023/10/29 02:29:18;;;;;;;4.22;1.00;;;;;;;;;;5021049;28;20101;-81
2023/10/29 02:31:44;;;;;;;2.17;0.80;;;;;;;;;;5004676;28;20061;-82
2023/10/29 02:34:09;;;;;;;2.90;0.85;;;;;;;;;;5009671;28;20060;-81
2023/10/29 02:36:35;;;;;;;4.03;1.20;;;;;;;;;;5023496;28;20043;-80
2023/10/29 02:39:00;;;;;;;3.22;1.20;;;;;;;;;;5006648;28;20041;-80
2023/10/29 02:41:25;;;;;;;4.47;1.67;;;;;;;;;;5023644;28;20029;-80
2023/10/29 02:43:50;;;;;;;3.13;0.93;;;;;;;;;;5022154;28;20506;-81
2023/10/29 02:46:17;;;;;;;4.55;1.17;;;;;;;;;;5023744;28;20125;-80
2023/10/29 02:48:42;;;;;;;4.80;0.90;;;;;;;;;;5018496;28;20105;-80
2023/10/29 02:51:11;;;;;;;3.15;0.70;;;;;;;;;;5003778;28;20490;-80
2023/10/29 02:53:36;;;;;;;6.07;1.52;;;;;;;;;;5024466;28;20040;-81
2023/10/29 02:56:02;;;;;;;4.20;1.35;;;;;;;;;;4985763;28;20042;-81
2023/10/29 02:58:27;;;;;;;3.80;0.90;;;;;;;;;;5024736;28;20025;-82
2023/10/29 03:00:52;;;;;;;5.57;1.23;;;;;;;;;;5019930;28;20030;-82
2023/10/29 03:03:17;;;;;;;2.65;1.02;;;;;;;;;;5003086;28;20113;-81
2023/10/29 03:05:43;;;;;;;3.90;1.10;;;;;;;;;;5002146;28;20021;-81
2023/10/29 03:08:08;;;;;;;6.30;1.13;;;;;;;;;;5006287;28;20041;-81
2023/10/29 03:10:33;;;;;;;4.70;1.05;;;;;;;;;;5007134;28;20026;-81
2023/10/29 03:12:59;;;;;;;4.63;1.10;;;;;;;;;;5007750;28;20041;-82
2023/10/29 03:15:24;;;;;;;4.20;1.10;;;;;;;;;;5024356;28;20036;-81
2023/10/29 03:17:49;;;;;;;4.50;1.98;;;;;;;;;;5004770;28;20033;-81
2023/10/29 03:20:16;;;;;;;4.18;1.20;;;;;;;;;;5002595;28;20036;-81
2023/10/29 03:22:41;;;;;;;3.53;0.98;;;;;;;;;;5023919;28;20018;-81
2023/10/29 03:25:08;;;;;;;5.78;0.95;;;;;;;;;;5018874;28;20494;-82
2023/10/29 03:27:33;;;;;;;4.47;1.08;;;;;;;;;;5022615;28;20116;-81
2023/10/29 03:30:00;;;;;;;5.80;1.60;;;;;;;;;;5006291;28;20099;-82
2023/10/29 03:32:25;;;;;;;5.05;0.95;;;;;;;;;;5003612;28;20510;-82
2023/10/29 03:34:51;;;;;;;3.40;0.90;;;;;;;;;;5022849;28;20021;-81
2023/10/29 03:37:18;;;;;;;3.30;0.95;;;;;;;;;;5007735;28;20045;-80
2023/10/29 03:39:43;;;;;;;2.67;1.02;;;;;;;;;;5020885;28;20374;-81
2023/10/29 03:42:08;;;;;;;6.22;1.30;;;;;;;;;;5021577;28;20026;-79
2023/10/29 03:44:33;;;;;;;5.32;1.02;;;;;;;;;;5010094;28;20554;-80
2023/10/29 03:46:59;;;;;;;6.57;1.83;;;;;;;;;;5020837;28;20453;-81
2023/10/29 03:49:24;;;;;;;4.18;1.30;;;;;;;;;;5022074;28;20044;-80
2023/10/29 03:51:49;;;;;;;3.00;0.98;;;;;;;;;;5020705;28;20032;-80
2023/10/29 03:54:15;;;;;;;3.47;1.00;;;;;;;;;;5018222;28;20030;-80
2023/10/29 03:56:40;;;;;;;3.00;0.77;;;;;;;;;;5020723;28;20096;-80
2023/10/29 03:59:06;;;;;;;2.92;0.90;;;;;;;;;;5020355;28;20033;-82
2023/10/29 04:01:31;;;;;;;4.05;1.40;;;;;;;;;;5015290;28;20038;-82
2023/10/29 04:03:57;;;;;;;4.43;1.30;;;;;;;;;;5007054;28;20025;-81
2023/10/29 04:06:22;;;;;;;5.10;1.30;;;;;;;;;;5018578;28;20022;-81
2023/10/29 04:08:47;;;;;;;3.05;1.00;;;;;;;;;;5021791;28;20024;-82
2023/10/29 04:11:12;;;;;;;4.28;1.25;;;;;;;;;;5022426;28;20038;-81
2023/10/29 04:13:37;;;;;;;5.82;1.08;;;;;;;;;;5015201;28;20030;-80
2023/10/29 04:16:03;;;;;;;4.53;1.20;;;;;;;;;;5018357;28;20052;-81
2023/10/29 04:18:31;;;;;;;3.25;1.10;;;;;;;;;;5019597;28;20036;-81
2023/10/29 04:20:56;;;;;;;4.00;1.10;;;;;;;;;;5004162;28;20033;-81
2023/10/29 04:23:22;;;;;;;3.08;1.10;;;;;;;;;;5021048;28;20025;-81
2023/10/29 04:25:47;;;;;;;5.50;1.35;;;;;;;;;;5019201;28;20017;-81
2023/10/29 04:28:12;;;;;;;4.03;1.10;;;;;;;;;;5016173;28;20430;-81
2023/10/29 04:30:37;;;;;;;3.50;1.13;;;;;;;;;;5022959;28;20110;-81
2023/10/29 04:33:03;;;;;;;6.32;1.52;;;;;;;;;;5018509;28;20092;-81
2023/10/29 04:35:29;;;;;;;6.10;1.30;;;;;;;;;;5022359;28;20084;-81
2023/10/29 04:37:54;;;;;;;5.30;1.13;;;;;;;;;;5019550;28;20145;-80
2023/10/29 04:40:19;;;;;;;4.85;1.05;;;;;;;;;;5019178;28;20037;-81
2023/10/29 04:42:44;;;;;;;4.07;1.17;;;;;;;;;;5022815;28;20080;-81
2023/10/29 04:45:11;;;;;;;6.43;1.52;;;;;;;;;;5021485;28;20442;-80
2023/10/29 04:47:36;;;;;;;3.20;1.02;;;;;;;;;;5007430;28;20069;-80
2023/10/29 04:50:01;;;;;;;5.10;1.23;;;;;;;;;;5021753;28;20061;-80
2023/10/29 04:52:26;;;;;;;4.60;1.33;;;;;;;;;;5027514;28;20155;-81
2023/10/29 04:54:52;;;;;;;4.43;1.10;;;;;;;;;;5019645;28;20033;-81
2023/10/29 04:57:20;;;;;;;3.85;1.10;;;;;;;;;;5019899;28;20034;-81
2023/10/29 04:59:45;;;;;;;3.50;1.20;;;;;;;;;;5024937;28;20029;-80
2023/10/29 05:02:10;;;;;;;5.93;1.60;;;;;;;;;;5024214;28;20033;-80
2023/10/29 05:04:35;;;;;;;6.03;1.60;;;;;;;;;;5008468;28;20018;-80
2023/10/29 05:07:01;;;;;;;5.38;1.50;;;;;;;;;;5025162;28;20371;-80
2023/10/29 05:09:26;;;;;;;8.25;1.50;;;;;;;;;;5023704;28;20057;-80
2023/10/29 05:11:51;;;;;;;6.78;1.65;;;;;;;;;;5010805;28;20393;-81
2023/10/29 05:14:16;;;;;;;3.65;1.00;;;;;;;;;;5024096;28;20023;-82
2023/10/29 05:16:41;;;;;;;4.32;1.38;;;;;;;;;;5024439;28;20490;-82
2023/10/29 05:19:08;;;;;;;5.18;1.55;;;;;;;;;;5022559;28;20490;-82
2023/10/29 05:21:33;;;;;;;5.07;1.67;;;;;;;;;;5024168;28;20041;-82
2023/10/29 05:23:59;;;;;;;5.18;1.60;;;;;;;;;;5015668;28;20029;-82
2023/10/29 05:26:24;;;;;;;4.10;1.10;;;;;;;;;;5019012;28;20026;-82
2023/10/29 05:28:49;;;;;;;4.28;0.85;;;;;;;;;;5025002;28;20029;-80
2023/10/29 05:31:15;;;;;;;3.40;1.00;;;;;;;;;;5024062;28;20130;-80
2023/10/29 05:33:40;;;;;;;3.35;1.00;;;;;;;;;;5024677;28;20026;-79
2023/10/29 05:36:06;;;;;;;3.30;1.23;;;;;;;;;;5019089;28;20034;-79
2023/10/29 05:38:31;;;;;;;3.03;1.00;;;;;;;;;;5021152;28;20030;-79
2023/10/29 05:40:56;;;;;;;5.97;1.50;;;;;;;;;;5024434;28;20026;-79
2023/10/29 05:43:21;;;;;;;4.45;0.98;;;;;;;;;;5024192;28;20502;-79
2023/10/29 05:45:46;;;;;;;4.97;1.10;;;;;;;;;;5005638;28;20025;-77
2023/10/29 05:48:12;;;;;;;3.72;0.98;;;;;;;;;;5021445;28;20042;-78
2023/10/29 05:50:37;;;;;;;3.00;1.02;;;;;;;;;;5022278;28;20037;-78
2023/10/29 05:53:03;;;;;;;3.20;0.88;;;;;;;;;;5022613;28;20040;-79
2023/10/29 05:55:28;;;;;;;5.60;1.20;;;;;;;;;;5018336;28;20029;-79
2023/10/29 05:57:54;;;;;;;3.63;1.30;;;;;;;;;;5019137;28;20553;-78
2023/10/29 06:00:19;;;;;;;3.22;1.00;;;;;;;;;;5024931;28;20026;-78
2023/10/29 06:02:44;;;;;;;4.90;1.10;;;;;;;;;;5022232;28;20104;-78
2023/10/29 06:05:09;;;;;;;3.17;0.63;;;;;;;;;;5020761;28;20408;-79
2023/10/29 06:07:36;;;;;;;3.38;0.85;;;;;;;;;;5024058;28;20029;-80
2023/10/29 06:10:01;;;;;;;3.65;0.90;;;;;;;;;;5016699;28;20383;-79
2023/10/29 06:12:27;;;;;;;3.30;0.90;;;;;;;;;;5023899;28;20040;-79
2023/10/29 06:14:52;;;;;;;3.83;1.02;;;;;;;;;;5022333;28;20033;-78
2023/10/29 06:17:17;;;;;;;7.47;0.93;;;;;;;;;;5020781;28;20026;-78
2023/10/29 06:19:42;;;;;;;4.50;1.05;;;;;;;;;;5020325;28;20032;-80
2023/10/29 06:22:08;;;;;;;2.72;0.77;;;;;;;;;;5003789;28;20026;-79
2023/10/29 06:24:34;;;;;;;2.65;0.90;;;;;;;;;;5020380;28;20021;-79
2023/10/29 06:26:59;;;;;;;4.15;0.80;;;;;;;;;;5016318;28;20049;-76
2023/10/29 06:29:24;;;;;;;3.95;0.90;;;;;;;;;;5026117;28;20072;-78
2023/10/29 06:31:50;;;;;;;3.10;0.80;;;;;;;;;;5003533;28;20163;-78
2023/10/29 06:34:15;;;;;;;4.97;0.60;;;;;;;;;;5021076;28;20030;-77
2023/10/29 06:36:40;;;;;;;2.80;0.73;;;;;;;;;;5022384;28;20075;-78
2023/10/29 06:39:05;;;;;;;1.52;0.70;;;;;;;;;;5018091;28;20025;-78
2023/10/29 06:41:30;;;;;;;2.00;0.77;;;;;;;;;;5025524;28;20508;-79
2023/10/29 06:43:56;;;;;;;2.75;1.00;;;;;;;;;;5010352;28;20112;-79
2023/10/29 06:46:21;;;;;;;3.72;0.88;;;;;;;;;;5021162;28;20034;-79
2023/10/29 06:48:46;;;;;;;2.85;0.70;;;;;;;;;;5018979;28;20033;-79
2023/10/29 06:51:11;;;;;;;3.13;0.82;;;;;;;;;;5054211;22;20122;-79
2023/10/29 06:53:37;;;;;;;2.83;0.80;;;;;;;;;;5049542;28;20105;-78
2023/10/29 06:56:02;;;;;;;3.38;0.82;;;;;;;;;;5052483;28;20029;-80
2023/10/29 06:58:28;;;;;;;3.17;0.70;;;;;;;;;;5052910;28;20041;-77
2023/10/29 07:00:53;;;;;;;2.30;0.70;;;;;;;;;;5050770;28;20032;-77
2023/10/29 07:03:18;;;;;;;3.25;0.82;;;;;;;;;;5052165;28;20104;-77
2023/10/29 07:05:44;;;;;;;3.45;1.05;;;;;;;;;;5052515;28;20028;-78
2023/10/29 07:08:09;;;;;;;2.97;0.70;;;;;;;;;;5034879;28;20167;-77
2023/10/29 07:10:34;;;;;;;1.85;0.63;;;;;;;;;;5053019;28;20036;-79
2023/10/29 07:12:59;;;;;;;3.33;1.23;;;;;;;;;;5053321;28;20044;-78
2023/10/29 07:15:25;;;;;;;3.70;1.00;;;;;;;;;;5052692;28;20036;-77
2023/10/29 07:17:51;;;;;;;2.75;0.82;;;;;;;;;;5057607;28;20044;-77
2023/10/29 07:20:16;;;;;;;2.45;0.93;;;;;;;;;;5057548;28;20029;-79
2023/10/29 07:22:42;;;;;;;5.43;1.15;;;;;;;;;;5034936;28;20485;-80
2023/10/29 07:25:07;;;;;;;3.25;0.70;;;;;;;;;;5034625;28;20420;-80
2023/10/29 07:27:32;;;;;;;1.98;0.80;;;;;;;;;;5033948;28;20028;-79
2023/10/29 07:29:58;;;;;;;3.33;1.02;;;;;;;;;;5052444;28;20689;-79
2023/10/29 07:32:23;;;;;;;3.85;0.93;;;;;;;;;;5052625;28;20107;-79
2023/10/29 07:34:48;;;;;;;5.32;0.98;;;;;;;;;;5052382;28;20025;-80
2023/10/29 07:37:13;;;;;;;2.25;0.70;;;;;;;;;;5052681;28;20158;-80
2023/10/29 07:39:39;;;;;;;3.40;0.82;;;;;;;;;;5052360;28;20400;-80
2023/10/29 07:42:04;;;;;;;2.50;0.80;;;;;;;;;;5052145;28;20711;-79
2023/10/29 07:44:29;;;;;;;3.88;1.08;;;;;;;;;;5034840;28;20032;-79
2023/10/29 07:46:54;;;;;;;3.38;0.90;;;;;;;;;;5051965;28;20027;-80
2023/10/29 07:49:20;;;;;;;2.88;0.90;;;;;;;;;;5052178;28;20020;-80
2023/10/29 07:51:47;;;;;;;3.15;0.70;;;;;;;;;;5051147;28;20039;-80
2023/10/29 07:54:12;;;;;;;3.28;0.82;;;;;;;;;;5051695;28;20029;-80
2023/10/29 07:56:38;;;;;;;3.45;1.10;;;;;;;;;;5050664;28;20087;-79
2023/10/29 07:59:03;;;;;;;4.30;0.93;;;;;;;;;;5051982;28;20029;-79
2023/10/29 08:01:28;;;;;;;3.97;1.02;;;;;;;;;;5051113;28;20017;-80
2023/10/29 08:03:55;;;;;;;3.50;1.05;;;;;;;;;;5051809;28;20025;-80
2023/10/29 08:06:21;;;;;;;2.95;0.82;;;;;;;;;;5033930;28;20025;-79
2023/10/29 08:08:46;;;;;;;2.60;0.80;;;;;;;;;;5052262;28;20074;-79
2023/10/29 08:11:20;;;;;;;3.10;1.17;;;;;;;;;;5051849;28;20041;-79
2023/10/29 08:13:46;;;;;;;2.28;0.65;;;;;;;;;;5048001;28;20063;-79
2023/10/29 08:16:11;;;;;;;3.70;0.95;;;;;;;;;;5051546;28;20142;-79
2023/10/29 08:18:37;;;;;;;3.72;0.70;;;;;;;;;;5033968;28;20064;-79
2023/10/29 08:21:02;;;;;;;4.35;1.17;;;;;;;;;;5055679;28;20028;-79
2023/10/29 08:23:28;;;;;;;1.70;0.73;;;;;;;;;;5055879;28;20036;-79
2023/10/29 08:25:54;;;;;;;4.03;0.85;;;;;;;;;;5055336;28;20029;-79
2023/10/29 08:28:19;;;;;;;3.92;1.00;;;;;;;;;;5055681;28;20037;-79
2023/10/29 08:30:47;;;;;;;2.40;0.85;;;;;;;;;;5056065;28;20028;-79
2023/10/29 08:33:12;;;;;;;2.53;0.75;;;;;;;;;;5037930;28;20041;-79
2023/10/29 08:35:38;;;;;;;4.50;0.80;;;;;;;;;;5055598;28;20032;-79
2023/10/29 08:38:03;;;;;;;3.75;0.80;;;;;;;;;;5055953;28;20029;-79
2023/10/29 08:40:28;;;;;;;3.47;0.77;;;;;;;;;;5037782;28;20025;-80
2023/10/29 08:42:53;;;;;;;5.45;0.70;;;;;;;;;;5053410;28;20370;-80
2023/10/29 08:45:20;;;;;;;3.30;1.00;;;;;;;;;;5037027;28;20496;-79
2023/10/29 08:47:45;;;;;;;4.25;1.05;;;;;;;;;;5055592;28;20500;-80
2023/10/29 08:50:10;;;;;;;2.85;0.90;;;;;;;;;;5055166;28;20025;-79
2023/10/29 08:52:35;;;;;;;4.47;0.70;;;;;;;;;;5055216;28;20029;-81
2023/10/29 08:55:01;;;;;;;6.13;1.63;;;;;;;;;;5037033;28;20460;-79
2023/10/29 08:57:26;;;;;;;2.35;0.77;;;;;;;;;;5055905;28;20539;-80
2023/10/29 08:59:51;;;;;;;4.13;1.27;;;;;;;;;;5054526;28;20055;-80
2023/10/29 09:02:17;;;;;;;2.92;0.70;;;;;;;;;;5055326;28;20104;-79
2023/10/29 09:04:42;;;;;;;3.30;0.90;;;;;;;;;;5037244;28;20040;-79
2023/10/29 09:07:07;;;;;;;2.72;0.93;;;;;;;;;;5054889;28;20025;-80
2023/10/29 09:09:33;;;;;;;5.32;1.05;;;;;;;;;;5056005;28;20025;-80
2023/10/29 09:11:58;;;;;;;3.88;1.00;;;;;;;;;;5038092;28;20029;-81
2023/10/29 09:14:23;;;;;;;1.83;0.73;;;;;;;;;;5053505;28;20029;-80
2023/10/29 09:16:48;;;;;;;2.70;0.88;;;;;;;;;;5037243;28;20482;-80
2023/10/29 09:19:14;;;;;;;2.17;0.82;;;;;;;;;;5052195;28;20074;-80
2023/10/29 09:21:39;;;;;;;2.28;0.85;;;;;;;;;;5052921;28;20104;-80
2023/10/29 09:24:06;;;;;;;1.83;0.70;;;;;;;;;;5035218;28;20037;-79
2023/10/29 09:26:32;;;;;;;3.50;0.70;;;;;;;;;;5018919;28;20040;-80
2023/10/29 09:28:57;;;;;;;3.42;0.90;;;;;;;;;;5020436;28;20488;-80
2023/10/29 09:31:22;;;;;;;3.72;0.90;;;;;;;;;;5053247;28;20032;-80
2023/10/29 09:33:47;;;;;;;2.70;0.98;;;;;;;;;;5035558;28;20037;-79
2023/10/29 09:36:13;;;;;;;3.13;1.30;;;;;;;;;;5054384;28;20028;-79
2023/10/29 09:38:38;;;;;;;4.43;1.40;;;;;;;;;;5054513;28;20041;-79
2023/10/29 09:41:04;;;;;;;3.53;1.10;;;;;;;;;;5054455;28;20032;-80
2023/10/29 09:43:38;;;;;;;4.65;0.93;;;;;;;;;;5054096;28;20447;-79
2023/10/29 09:46:05;;;;;;;1.58;0.70;;;;;;;;;;5036140;28;20025;-80
2023/10/29 09:48:31;;;;;;;2.50;0.80;;;;;;;;;;5018154;28;20080;-80
2023/10/29 09:50:56;;;;;;;3.50;0.90;;;;;;;;;;5054193;28;20124;-80
2023/10/29 09:53:23;;;;;;;4.70;0.80;;;;;;;;;;5053985;28;20059;-80
2023/10/29 09:55:51;;;;;;;2.47;0.75;;;;;;;;;;5053911;28;20029;-80
2023/10/29 09:58:16;;;;;;;3.67;1.00;;;;;;;;;;5054246;28;20065;-80
2023/10/29 10:00:42;;;;;;;3.15;0.70;;;;;;;;;;5053983;28;20032;-80
2023/10/29 10:03:07;;;;;;;1.95;0.60;;;;;;;;;;5035678;28;20578;-79
2023/10/29 10:05:33;;;;;;;1.80;0.70;;;;;;;;;;5019220;28;20052;-80
2023/10/29 10:07:58;;;;;;;2.67;0.75;;;;;;;;;;5054070;28;20046;-80
2023/10/29 10:10:53;;;;;;;2.95;0.80;;;;;;;;;;5036003;28;20029;-79
2023/10/29 10:13:34;;;;;;;2.90;0.90;;;;;;;;;;5027104;28;20047;-80
2023/10/29 10:16:05;;;;;;;4.18;0.70;;;;;;;;;;5051119;28;20028;-80
2023/10/29 10:18:45;;;;;;;3.00;0.63;;;;;;;;;;5030870;28;20029;-80
2023/10/29 10:21:11;;;;;;;3.28;0.93;;;;;;;;;;5053955;28;20052;-80
2023/10/29 10:23:52;;;;;;;2.53;0.60;;;;;;;;;;5035621;28;20125;-80
2023/10/29 10:26:31;;;;;;;2.10;0.60;;;;;;;;;;5052446;28;20032;-79
2023/10/29 10:29:01;;;;;;;2.92;0.75;;;;;;;;;;5032004;28;20060;-79
2023/10/29 10:31:31;;;;;;;3.05;0.80;;;;;;;;;;5053496;28;20025;-80
2023/10/29 10:34:12;;;;;;;3.45;0.85;;;;;;;;;;5035447;28;20404;-80
2023/10/29 10:36:38;;;;;;;3.10;0.70;;;;;;;;;;5052724;28;20057;-79
2023/10/29 10:39:03;;;;;;;2.03;0.80;;;;;;;;;;5053378;28;20064;-79
2023/10/29 10:41:38;;;;;;;1.70;0.65;;;;;;;;;;5052742;28;20042;-80
2023/10/29 10:44:08;;;;;;;2.95;1.00;;;;;;;;;;5050372;28;20037;-79
2023/10/29 10:46:34;;;;;;;88.40;15.32;;;;;;;;;;5053036;28;20028;-80
2023/10/29 10:49:00;;;;;;;4.80;0.90;;;;;;;;;;5053236;28;20040;-80
2023/10/29 10:51:25;;;;;;;3.45;1.38;;;;;;;;;;5052653;28;20033;-80
2023/10/29 10:53:51;;;;;;;2.65;0.98;;;;;;;;;;5034701;28;20029;-80
2023/10/29 10:56:16;;;;;;;3.50;0.70;;;;;;;;;;5053348;28;20025;-79
2023/10/29 10:58:44;;;;;;;2.17;0.80;;;;;;;;;;5053122;28;20036;-80
2023/10/29 11:01:09;;;;;;;2.17;0.70;;;;;;;;;;5035049;28;20037;-80
2023/10/29 11:03:35;;;;;;;3.10;0.70;;;;;;;;;;5052726;28;20021;-79
2023/10/29 11:06:00;;;;;;;2.47;0.80;;;;;;;;;;5052788;28;21148;-80
2023/10/29 11:08:26;;;;;;;1.50;0.65;;;;;;;;;;5052586;28;20037;-80
2023/10/29 11:10:53;;;;;;;2.53;0.70;;;;;;;;;;5034948;28;20033;-80
2023/10/29 11:13:20;;;;;;;2.55;0.82;;;;;;;;;;5034669;28;20485;-80
2023/10/29 11:15:46;;;;;;;3.05;1.05;;;;;;;;;;5052738;28;20044;-80
2023/10/29 11:18:12;;;;;;;3.67;0.90;;;;;;;;;;5050969;28;20033;-80
2023/10/29 11:20:41;;;;;;;2.97;1.05;;;;;;;;;;5052642;28;20496;-80
2023/10/29 11:23:12;;;;;;;3.33;1.00;;;;;;;;;;5034804;28;20115;-79
2023/10/29 11:25:37;;;;;;;3.70;1.15;;;;;;;;;;5034746;28;20036;-80
2023/10/29 11:28:03;;;;;;;2.63;0.82;;;;;;;;;;5052364;28;20032;-79
2023/10/29 11:30:29;;;;;;;3.42;0.90;;;;;;;;;;5034631;28;20053;-80
2023/10/29 11:33:12;;;;;;;3.65;0.82;;;;;;;;;;5052670;28;20116;-80
2023/10/29 11:35:38;;;;;;;3.28;1.02;;;;;;;;;;5048740;28;20033;-79
2023/10/29 11:38:22;;;;;;;2.65;0.95;;;;;;;;;;5051964;28;20025;-79
2023/10/29 11:40:49;;;;;;;8.05;0.80;;;;;;;;;;5034276;28;20477;-79
2023/10/29 11:43:22;;;;;;;2.50;0.73;;;;;;;;;;5052288;28;20473;-79
2023/10/29 11:45:57;;;;;;;3.20;0.77;;;;;;;;;;5048666;28;20091;-80
2023/10/29 11:48:23;;;;;;;1.23;0.50;;;;;;;;;;5052172;28;20033;-80
2023/10/29 11:51:03;;;;;;;2.20;0.43;;;;;;;;;;5052160;28;20040;-79
2023/10/29 11:53:29;;;;;;;3.65;0.50;;;;;;;;;;5040348;28;20500;-80
2023/10/29 11:55:57;;;;;;;1.20;0.40;;;;;;;;;;5051483;28;20025;-80
2023/10/29 11:58:22;;;;;;;2.05;0.30;;;;;;;;;;5034288;28;20062;-80
2023/10/29 12:00:48;;;;;;;2.58;0.70;;;;;;;;;;5052208;28;20025;-80
2023/10/29 12:03:17;;;;;;;2.70;0.75;;;;;;;;;;5051767;28;20428;-80
2023/10/29 12:05:46;;;;;;;2.15;0.60;;;;;;;;;;5049467;28;20029;-80
2023/10/29 12:08:12;;;;;;;3.95;0.93;;;;;;;;;;5033628;28;20511;-80
2023/10/29 12:10:44;;;;;;;3.15;0.70;;;;;;;;;;5051674;28;20055;-80
2023/10/29 12:13:09;;;;;;;;;;;;;;;;;;5052257;28;20024;-80
2023/10/29 12:15:34;;;;;;;2.03;0.70;;;;;;;;;;5034419;28;19916;-80
2023/10/29 12:18:00;;;;;;;3.00;0.80;;;;;;;;;;5034093;28;20317;-80
2023/10/29 12:20:26;;;;;;;2.30;0.77;;;;;;;;;;5034042;28;20086;-80
2023/10/29 12:22:52;;;;;;;2.63;1.02;;;;;;;;;;5049050;28;20036;-80
2023/10/29 12:25:18;;;;;;;2.80;0.73;;;;;;;;;;5049154;28;20029;-80
2023/10/29 12:27:44;;;;;;;3.08;1.08;;;;;;;;;;5037402;28;20021;-80
2023/10/29 12:30:29;;;;;;;3.20;1.48;;;;;;;;;;5015175;28;20048;-80
2023/10/29 12:33:13;;;;;;;1.55;0.70;;;;;;;;;;5050071;28;20175;-80
2023/10/29 12:35:39;;;;;;;1.90;0.60;;;;;;;;;;5051477;28;20029;-80
2023/10/29 12:38:04;;;;;;;1.75;0.73;;;;;;;;;;5051829;28;20052;-80
2023/10/29 12:40:30;;;;;;;1.98;0.75;;;;;;;;;;5051989;28;20079;-80
2023/10/29 12:42:56;;;;;;;3.75;0.80;;;;;;;;;;5034042;28;20040;-79
2023/10/29 12:45:22;;;;;;;2.28;0.77;;;;;;;;;;5051644;28;20029;-80
2023/10/29 12:47:47;;;;;;;1.48;0.68;;;;;;;;;;5034000;28;20029;-80
2023/10/29 12:50:12;;;;;;;2.08;0.85;;;;;;;;;;5051258;28;20113;-80
2023/10/29 12:52:42;;;;;;;1.92;0.77;;;;;;;;;;5051407;28;20116;-79
2023/10/29 12:55:07;;;;;;;2.90;0.80;;;;;;;;;;5033708;28;20104;-80
2023/10/29 12:57:33;;;;;;;2.42;0.70;;;;;;;;;;5051557;28;20449;-80
2023/10/29 12:59:58;;;;;;;2.60;0.80;;;;;;;;;;5051338;28;20079;-80
2023/10/29 13:02:24;;;;;;;3.10;0.90;;;;;;;;;;5048704;28;20036;-80
2023/10/29 13:04:50;;;;;;;1.95;0.70;;;;;;;;;;5033467;28;20037;-80
2023/10/29 13:07:17;;;;;;;1.42;0.70;;;;;;;;;;5054916;28;20032;-80
2023/10/29 13:09:42;;;;;;;3.20;0.65;;;;;;;;;;5055135;28;20025;-80
2023/10/29 13:12:09;;;;;;;4.45;0.85;;;;;;;;;;5034854;28;20544;-80
2023/10/29 13:14:36;;;;;;;4.75;0.82;;;;;;;;;;5052294;28;20080;-80
2023/10/29 13:17:01;;;;;;;3.00;0.90;;;;;;;;;;5030450;28;20029;-80
2023/10/29 13:19:27;;;;;;;3.17;0.88;;;;;;;;;;5052666;28;20051;-80
2023/10/29 13:21:52;;;;;;;1.90;0.60;;;;;;;;;;5036837;28;20037;-79
2023/10/29 13:24:19;;;;;;;1.88;0.65;;;;;;;;;;5054812;28;20082;-79
2023/10/29 13:26:44;;;;;;;2.15;0.90;;;;;;;;;;5020607;28;20044;-79
2023/10/29 13:29:09;;;;;;;2.70;0.85;;;;;;;;;;5054971;28;20075;-80
2023/10/29 13:31:34;;;;;;;2.60;0.68;;;;;;;;;;5051718;28;20036;-79
2023/10/29 13:34:00;;;;;;;1.20;0.60;;;;;;;;;;5054789;28;20028;-80
2023/10/29 13:36:28;;;;;;;2.28;1.15;;;;;;;;;;5050927;28;20033;-80
2023/10/29 13:38:53;;;;;;;2.55;0.93;;;;;;;;;;5036905;28;20451;-80
2023/10/29 13:41:19;;;;;;;2.75;0.82;;;;;;;;;;5054480;28;20021;-79
2023/10/29 13:43:44;;;;;;;2.70;0.65;;;;;;;;;;5036534;28;20532;-80
2023/10/29 13:46:10;;;;;;;1.38;0.60;;;;;;;;;;5054574;28;20482;-79
2023/10/29 13:48:35;;;;;;;2.40;0.90;;;;;;;;;;5051483;28;20060;-80
2023/10/29 13:51:04;;;;;;;4.32;0.88;;;;;;;;;;5036173;28;20123;-80
2023/10/29 13:53:30;;;;;;;3.90;1.00;;;;;;;;;;5019629;28;20029;-80
2023/10/29 13:56:03;;;;;;;2.03;0.60;;;;;;;;;;5039540;28;20499;-80
2023/10/29 13:58:28;;;;;;;2.17;0.70;;;;;;;;;;5036372;28;20107;-80
2023/10/29 14:00:53;;;;;;;4.40;0.98;;;;;;;;;;5054183;28;20449;-80
2023/10/29 14:03:19;;;;;;;2.97;1.15;;;;;;;;;;5053851;28;20489;-80
2023/10/29 14:05:45;;;;;;;2.63;0.80;;;;;;;;;;5035864;28;20021;-80
2023/10/29 14:08:10;;;;;;;1.73;0.90;;;;;;;;;;5054058;28;20033;-79
2023/10/29 14:10:36;;;;;;;4.68;0.77;;;;;;;;;;5036231;28;20562;-79
2023/10/29 14:13:01;;;;;;;1.10;0.43;;;;;;;;;;5036165;28;20102;-79
2023/10/29 14:15:26;;;;;;;2.17;0.80;;;;;;;;;;5053607;28;20508;-79
2023/10/29 14:17:53;;;;;;;1.73;0.60;;;;;;;;;;5050695;28;20303;-80
2023/10/29 14:20:18;;;;;;;1.77;0.77;;;;;;;;;;5035885;28;20035;-80
2023/10/29 14:22:43;;;;;;;1.95;0.60;;;;;;;;;;5053400;28;20021;-80
2023/10/29 14:25:08;;;;;;;1.50;0.50;;;;;;;;;;5035838;28;20094;-80
2023/10/29 14:27:34;;;;;;;2.13;0.68;;;;;;;;;;5053757;28;20028;-79
2023/10/29 14:29:59;;;;;;;3.33;0.68;;;;;;;;;;5053851;28;20035;-79
2023/10/29 14:32:25;;;;;;;2.72;0.60;;;;;;;;;;5035910;28;20443;-80
2023/10/29 14:34:50;;;;;;;4.60;0.82;;;;;;;;;;5035483;28;20051;-80
2023/10/29 14:37:15;;;;;;;2.33;0.80;;;;;;;;;;5035652;28;20056;-80